Time;durP1;ratioP1;P1;durP2;ratioP2;P2;SDS_P1;SDS_P2;PMS_P1;PMS_P2;Temp;Humidity;BMP_temperature;BMP_pressure;BME280_temperature;BME280_humidity;BME280_pressure;Samples;Min_cycle;Max_cycle;Signal;HPM_P1;HPM_P2
2022/06/26 00:01:15;;;;;;;3.80;3.20;;;;;;;18.88;100.00;100824.34;20809855;28;20096;-76
2022/06/26 00:11:17;;;;;;;3.80;3.38;;;;;;;18.86;100.00;100814.72;20812380;28;20057;-75
2022/06/26 00:21:18;;;;;;;3.33;3.00;;;;;;;18.82;100.00;100816.84;20777700;28;20115;-76
2022/06/26 00:31:20;;;;;;;5.10;3.33;;;;;;;18.85;100.00;100819.25;20820145;28;20099;-76
2022/06/26 00:41:22;;;;;;;5.15;3.47;;;;;;;18.84;100.00;100813.03;20800140;28;20514;-76
2022/06/26 00:51:24;;;;;;;3.30;2.88;;;;;;;18.83;100.00;100821.25;20800761;28;20056;-75
2022/06/26 01:01:25;;;;;;;3.80;3.28;;;;;;;18.79;100.00;100803.66;20956966;28;20051;-76
2022/06/26 01:11:28;;;;;;;4.40;3.05;;;;;;;18.80;100.00;100789.16;20818308;28;20037;-76
2022/06/26 01:21:30;;;;;;;3.50;3.03;;;;;;;18.60;100.00;100778.44;20789410;28;20080;-76
2022/06/26 01:31:36;;;;;;;4.25;3.40;;;;;;;18.79;100.00;100833.31;20811931;28;20053;-76
2022/06/26 01:41:37;;;;;;;3.78;3.33;;;;;;;18.79;100.00;100858.47;20790504;28;20045;-76
2022/06/26 01:51:39;;;;;;;4.57;4.18;;;;;;;18.80;100.00;100865.56;20796903;28;20050;-76
2022/06/26 02:01:41;;;;;;;6.18;4.93;;;;;;;18.79;100.00;100889.97;20795735;28;20141;-76
2022/06/26 02:22:06;;;;;;;8.10;5.13;;;;;;;18.80;100.00;100924.88;20883741;28;20056;-76
2022/06/26 02:32:08;;;;;;;5.75;5.25;;;;;;;18.80;100.00;100892.53;20851560;28;20045;-76
2022/06/26 02:42:10;;;;;;;7.90;6.65;;;;;;;18.79;100.00;100858.47;20875919;28;20040;-76
2022/06/26 02:52:15;;;;;;;6.38;5.80;;;;;;;18.79;100.00;100858.47;20810058;28;20081;-76
2022/06/26 03:02:17;;;;;;;5.82;5.22;;;;;;;18.78;100.00;100872.06;20808655;28;20068;-76
2022/06/26 03:12:28;;;;;;;6.40;5.80;;;;;;;18.78;100.00;100872.94;20801191;28;20049;-76
2022/06/26 03:22:30;;;;;;;6.53;5.40;;;;;;;18.77;100.00;100887.38;20806682;28;20083;-76
2022/06/26 03:32:32;;;;;;;5.70;4.70;;;;;;;18.77;100.00;100883.84;20849698;28;20057;-76
2022/06/26 03:42:38;;;;;;;6.80;4.13;;;;;;;18.76;100.00;100892.94;20907974;28;20048;-75
2022/06/26 03:52:40;;;;;;;4.55;3.85;;;;;;;18.75;100.00;100893.94;20883569;28;20045;-76
2022/06/26 04:02:43;;;;;;;5.40;3.55;;;;;;;18.73;100.00;100895.94;20812318;28;20045;-75
2022/06/26 04:12:51;;;;;;;3.42;2.80;;;;;;;18.72;100.00;100910.41;20843642;28;20067;-76
2022/06/26 04:23:10;;;;;;;3.58;2.90;;;;;;;18.72;100.00;100931.97;20870101;28;20426;-76
2022/06/26 04:33:14;;;;;;;4.38;2.90;;;;;;;18.70;100.00;100926.72;20920185;28;20056;-76
2022/06/26 04:43:16;;;;;;;3.97;2.65;;;;;;;18.69;100.00;100957.38;20880643;28;20532;-76
2022/06/26 04:53:19;;;;;;;2.63;2.17;;;;;;;18.57;100.00;100956.66;20915318;28;20040;-76
2022/06/26 05:03:21;;;;;;;2.45;2.22;;;;;;;18.69;100.00;100992.41;20851602;28;20046;-76
2022/06/26 05:13:43;;;;;;;4.55;2.13;;;;;;;18.68;100.00;101023.06;20773286;28;20042;-75
2022/06/26 05:24:05;;;;;;;2.83;2.60;;;;;;;18.67;100.00;101027.63;20771311;28;20041;-75
2022/06/26 05:34:07;;;;;;;3.00;2.13;;;;;;;18.57;100.00;101024.06;20801137;28;20037;-75
2022/06/26 05:44:08;;;;;;;1.80;1.70;;;;;;;18.68;100.00;101055.44;20773244;28;20053;-75
2022/06/26 05:54:16;;;;;;;2.88;2.00;;;;;;;18.60;100.00;101041.78;20784696;28;21032;-75
2022/06/26 06:04:49;;;;;;;4.63;2.90;;;;;;;18.58;100.00;101052.72;20756239;28;20045;-76
2022/06/26 06:14:52;;;;;;;3.08;2.67;;;;;;;18.68;100.00;101067.09;20802593;28;20131;-75
2022/06/26 06:24:57;;;;;;;3.63;2.77;;;;;;;18.70;100.00;101100.16;20881718;28;20049;-75
2022/06/26 06:34:58;;;;;;;3.03;2.72;;;;;;;18.59;100.00;101085.94;20871207;28;20102;-75
2022/06/26 06:45:10;;;;;;;4.05;3.10;;;;;;;18.65;100.00;101105.13;20854243;28;20429;-76
2022/06/26 06:55:31;;;;;;;4.40;3.70;;;;;;;18.49;100.00;101083.19;20848140;28;20057;-75
2022/06/26 07:05:33;;;;;;;4.22;3.80;;;;;;;18.68;100.00;101142.59;20846913;28;20056;-75
2022/06/26 07:15:35;;;;;;;4.95;4.10;;;;;;;18.71;100.00;101160.34;20869823;28;20516;-75
2022/06/26 07:25:37;;;;;;;5.38;4.88;;;;;;;18.73;100.00;101158.34;20865812;28;20055;-76
2022/06/26 07:35:40;;;;;;;4.65;4.22;;;;;;;18.79;100.00;101181.25;20785816;28;20053;-76
2022/06/26 07:45:42;;;;;;;7.78;6.30;;;;;;;18.92;100.00;101192.66;20811171;28;20148;-76
2022/06/26 07:55:47;;;;;;;11.85;10.65;;;;;;;18.92;100.00;101208.00;20778358;28;20038;-75
2022/06/26 08:05:49;;;;;;;11.75;10.60;;;;;;;18.91;100.00;101203.59;20771860;28;20053;-76
2022/06/26 08:15:50;;;;;;;10.98;9.88;;;;;;;18.82;100.00;101197.16;20774740;28;20053;-76
2022/06/26 08:25:52;;;;;;;11.18;10.05;;;;;;;18.94;100.00;101206.84;20774608;28;20520;-75
2022/06/26 08:35:53;;;;;;;10.10;9.05;;;;;;;18.99;100.00;101228.91;20776307;28;20053;-75
2022/06/26 08:46:04;;;;;;;9.52;8.30;;;;;;;18.87;100.00;101215.66;20933977;28;20402;-76
2022/06/26 08:56:06;;;;;;;9.88;7.55;;;;;;;19.09;100.00;101255.09;20924988;28;20091;-73
2022/06/26 09:06:08;;;;;;;7.85;6.32;;;;;;;19.11;100.00;101258.53;20893520;28;20448;-74
2022/06/26 09:16:10;;;;;;;6.20;5.60;;;;;;;19.13;100.00;101278.97;20899145;28;20289;-74
2022/06/26 09:26:15;;;;;;;6.40;4.95;;;;;;;19.06;100.00;101275.09;20926059;28;20049;-74
2022/06/26 09:36:18;;;;;;;4.77;4.27;;;;;;;19.11;100.00;101288.22;20846208;28;20064;-74
2022/06/26 09:46:28;;;;;;;5.22;3.60;;;;;;;19.11;100.00;101288.22;20845380;28;20386;-74
2022/06/26 09:56:31;;;;;;;3.90;3.35;;;;;;;19.11;100.00;101293.59;20850589;28;20045;-74
2022/06/26 10:06:32;;;;;;;5.65;3.50;;;;;;;19.11;100.00;101293.59;20792144;28;20049;-74
2022/06/26 10:16:43;;;;;;;4.63;2.90;;;;;;;19.10;100.00;101286.50;20790387;28;20052;-73
2022/06/26 10:27:00;;;;;;;3.35;2.30;;;;;;;19.10;100.00;101281.94;20783610;28;20050;-73
2022/06/26 10:37:05;;;;;;;2.97;2.03;;;;;;;19.09;98.37;101279.41;20830901;28;20060;-74
2022/06/26 10:47:15;;;;;;;2.78;2.08;;;;;;;19.09;97.24;101290.19;20778229;28;20502;-74
2022/06/26 10:57:19;;;;;;;2.42;1.80;;;;;;;19.08;96.60;101294.72;20779082;28;21061;-73
2022/06/26 11:07:21;;;;;;;2.77;1.80;;;;;;;19.09;96.04;101298.28;20787293;28;20041;-74
2022/06/26 11:17:23;;;;;;;3.03;1.92;;;;;;;18.91;95.54;101282.66;20779784;28;20056;-74
2022/06/26 11:27:26;;;;;;;2.85;2.00;;;;;;;19.08;94.81;101302.81;20781148;28;20502;-74
2022/06/26 11:37:36;;;;;;;3.92;2.50;;;;;;;18.93;93.83;101278.00;20774288;28;20505;-74
2022/06/26 11:47:40;;;;;;;5.18;1.95;;;;;;;19.09;93.94;101303.69;20774923;28;20045;-74
2022/06/26 11:57:41;;;;;;;4.82;2.42;;;;;;;19.09;93.41;101301.81;20861892;28;20052;-73
2022/06/26 12:07:46;;;;;;;4.55;2.22;;;;;;;19.10;92.68;101308.09;20824868;28;20052;-74
2022/06/26 12:17:55;;;;;;;3.00;1.97;;;;;;;18.97;92.48;101292.94;20852395;28;20072;-73
2022/06/26 12:27:58;;;;;;;4.53;2.33;;;;;;;19.10;93.12;101338.63;20850464;28;20356;-74
2022/06/26 12:38:00;;;;;;;3.75;2.15;;;;;;;19.11;92.69;101328.69;20854829;28;20513;-74
2022/06/26 12:48:02;;;;;;;3.10;2.35;;;;;;;19.11;92.39;101347.56;20849348;28;20107;-74
2022/06/26 12:58:03;;;;;;;3.38;2.00;;;;;;;19.10;91.43;101356.66;20779261;28;20068;-74
2022/06/26 13:08:05;;;;;;;2.22;1.88;;;;;;;19.04;91.44;101352.66;20774405;28;20045;-75
2022/06/26 13:18:07;;;;;;;2.90;1.63;;;;;;;19.09;90.49;101363.88;20768322;28;20046;-74
2022/06/26 13:28:08;;;;;;;3.22;1.95;;;;;;;19.09;90.19;101377.38;20798685;28;20057;-74
2022/06/26 13:38:30;;;;;;;4.15;2.00;;;;;;;18.97;90.61;101367.63;20785162;28;20521;-74
2022/06/26 13:48:33;;;;;;;3.63;1.98;;;;;;;19.06;91.35;101409.19;20827737;28;20085;-75
2022/06/26 13:58:34;;;;;;;4.10;2.25;;;;;;;19.09;93.62;101381.94;20784995;28;20056;-73
2022/06/26 14:08:36;;;;;;;3.13;2.50;;;;;;;19.07;95.01;101363.16;20814689;28;20791;-74
2022/06/26 14:18:38;;;;;;;4.95;2.70;;;;;;;19.05;96.13;101340.88;20789979;28;20057;-73
2022/06/26 14:28:39;;;;;;;6.78;2.88;;;;;;;19.04;96.50;101324.81;20783299;28;20038;-73
2022/06/26 14:38:41;;;;;;;4.55;2.95;;;;;;;19.10;96.43;101325.13;20789792;28;20060;-72
2022/06/26 14:48:50;;;;;;;3.72;2.70;;;;;;;19.11;96.62;101332.22;20783702;28;20088;-73
2022/06/26 14:58:52;;;;;;;3.35;2.67;;;;;;;19.12;96.56;101349.28;20776224;28;20049;-72
2022/06/26 15:08:54;;;;;;;3.85;2.30;;;;;;;19.11;97.63;101345.72;20764091;28;20053;-75
2022/06/26 15:18:55;;;;;;;5.97;2.97;;;;;;;19.11;97.33;101347.56;20777390;28;20673;-74
2022/06/26 15:28:57;;;;;;;4.03;2.60;;;;;;;19.10;97.76;101343.16;20803162;28;20130;-73
2022/06/26 15:38:59;;;;;;;3.08;2.47;;;;;;;19.09;98.21;101354.97;20804473;28;20054;-74
2022/06/26 15:49:00;;;;;;;4.05;2.47;;;;;;;19.05;98.22;101342.72;20804588;28;20122;-74
2022/06/26 15:59:03;;;;;;;3.85;2.50;;;;;;;19.05;97.98;101323.84;20845806;28;20111;-74
2022/06/26 16:09:04;;;;;;;4.15;2.42;;;;;;;19.05;98.10;101324.66;20869061;28;20041;-74
2022/06/26 16:19:06;;;;;;;7.03;2.88;;;;;;;19.05;98.05;101318.44;20875432;28;20049;-74
2022/06/26 16:29:08;;;;;;;4.97;2.50;;;;;;;19.04;99.31;101322.13;20871959;28;20064;-75
2022/06/26 16:39:09;;;;;;;4.88;2.70;;;;;;;19.04;100.00;101335.63;20879698;28;20139;-73
2022/06/26 16:49:11;;;;;;;4.47;2.60;;;;;;;19.04;100.00;101324.81;20879932;28;20055;-75
2022/06/26 16:59:12;;;;;;;4.70;2.33;;;;;;;19.03;100.00;101315.00;20880984;28;20052;-75
2022/06/26 17:09:14;;;;;;;3.40;2.70;;;;;;;19.02;100.00;101321.41;20852262;28;20408;-75
2022/06/26 17:19:16;;;;;;;5.00;2.55;;;;;;;19.01;100.00;101303.50;20812517;28;20054;-74
2022/06/26 17:29:18;;;;;;;5.57;2.53;;;;;;;19.01;100.00;101298.09;20866584;28;20045;-75
2022/06/26 17:39:19;;;;;;;5.72;2.45;;;;;;;18.88;100.00;101277.53;20894449;28;20052;-75
2022/06/26 17:49:21;;;;;;;5.07;2.60;;;;;;;19.01;100.00;101298.09;20890797;28;20045;-75
2022/06/26 17:59:22;;;;;;;4.20;2.47;;;;;;;19.00;100.00;101291.84;20892584;28;20128;-75
2022/06/26 18:09:24;;;;;;;5.20;2.40;;;;;;;18.99;100.00;101296.38;20892297;28;20049;-75
2022/06/26 18:19:26;;;;;;;3.65;2.30;;;;;;;18.95;100.00;101300.28;20891029;28;20324;-75
2022/06/26 18:29:27;;;;;;;6.47;2.20;;;;;;;18.91;100.00;101300.72;20872250;28;20055;-74
2022/06/26 18:39:29;;;;;;;3.85;2.20;;;;;;;18.97;100.00;101297.47;20888581;28;20401;-75
2022/06/26 18:49:31;;;;;;;2.80;2.03;;;;;;;18.96;100.00;101284.97;20885719;28;20041;-75
2022/06/26 18:59:32;;;;;;;4.35;2.10;;;;;;;18.77;100.00;101253.34;20885386;28;20445;-75
2022/06/26 19:09:34;;;;;;;4.82;2.05;;;;;;;18.93;100.00;101291.47;20887840;28;20132;-75
2022/06/26 19:19:38;;;;;;;3.30;1.98;;;;;;;18.93;100.00;101288.78;20884960;28;20075;-75
2022/06/26 19:29:40;;;;;;;1.75;1.65;;;;;;;18.93;100.00;101290.63;20883072;28;20493;-75
2022/06/26 19:39:42;;;;;;;4.18;1.90;;;;;;;18.92;100.00;101319.44;20884400;28;20049;-75
2022/06/26 20:00:05;;;;;;;3.15;2.00;;;;;;;18.90;100.00;101334.06;20883268;28;20045;-75
2022/06/26 20:10:08;;;;;;;2.47;1.67;;;;;;;18.91;100.00;101349.28;20879084;28;20141;-74
2022/06/26 20:20:10;;;;;;;4.43;2.25;;;;;;;18.90;100.00;101367.28;20864898;28;20049;-74
2022/06/26 20:30:12;;;;;;;2.72;1.90;;;;;;;18.69;100.00;101329.53;20880017;28;20051;-75
2022/06/26 20:40:14;;;;;;;2.80;2.30;;;;;;;18.88;100.00;101366.56;20877960;28;20049;-75
2022/06/26 20:50:15;;;;;;;2.72;1.95;;;;;;;18.87;100.00;101375.66;20879760;28;20512;-75
2022/06/26 21:00:17;;;;;;;4.38;2.03;;;;;;;18.86;100.00;101373.09;20880251;28;20409;-75
2022/06/26 21:10:19;;;;;;;2.83;2.33;;;;;;;18.86;100.00;101376.63;20879363;28;20053;-75
2022/06/26 21:20:24;;;;;;;3.27;1.90;;;;;;;18.83;100.00;101360.72;20880216;28;20049;-75
2022/06/26 21:30:25;;;;;;;3.20;2.20;;;;;;;18.83;100.00;101352.63;20861135;28;20095;-75
2022/06/26 21:40:27;;;;;;;2.83;2.35;;;;;;;18.68;100.00;101325.97;20876092;28;20049;-74
2022/06/26 21:50:29;;;;;;;4.05;2.00;;;;;;;18.82;100.00;101345.50;20885595;28;20513;-75
2022/06/26 22:00:32;;;;;;;3.40;2.10;;;;;;;18.82;100.00;101340.13;20892568;28;20128;-75
2022/06/26 22:10:36;;;;;;;4.22;2.65;;;;;;;18.82;100.00;101351.78;20891043;28;20052;-75
2022/06/26 22:20:37;;;;;;;4.35;2.42;;;;;;;18.73;100.00;101327.44;20889576;28;20589;-75
2022/06/26 22:30:39;;;;;;;3.95;2.70;;;;;;;18.80;100.00;101320.50;20890678;28;20037;-75
2022/06/26 22:40:41;;;;;;;3.40;2.53;;;;;;;18.80;100.00;101320.50;20887865;28;20069;-75
2022/06/26 22:50:42;;;;;;;4.75;2.47;;;;;;;18.72;100.00;101306.84;20886702;28;20044;-75
2022/06/26 23:00:44;;;;;;;3.08;2.38;;;;;;;18.75;100.00;101282.31;20888129;28;20053;-75
2022/06/26 23:10:46;;;;;;;3.42;2.72;;;;;;;18.78;100.00;101284.72;20888155;28;20068;-75
2022/06/26 23:20:48;;;;;;;3.88;3.13;;;;;;;18.79;100.00;101272.94;20886062;28;20044;-75
2022/06/26 23:30:50;;;;;;;3.38;2.50;;;;;;;18.77;100.00;101277.63;20884394;28;20079;-76
2022/06/26 23:40:51;;;;;;;3.05;2.47;;;;;;;18.76;100.00;101281.31;20884456;28;20075;-75
2022/06/26 23:50:53;;;;;;;3.65;2.95;;;;;;;18.76;100.00;101251.66;20884608;28;20504;-75
